Information for Honolulu International Airport

back to airport list

ICAO Code:PHNL Country:United States
Airport Name:Honolulu International Airport Is Hub:No
Latitude:21.3187 Longitude:-157.922
Scheduled Departures:0 Scheduled Arrivals:0
Total Past Departures:0 Total Past Arrivals:0
Pilots Based:0 Current Pilot Location:0
Current METAR: 2018/02/19 14:56 KLAS 191456Z 23010KT 10SM FEW080 SCT100 07/M12 A2963 RMK AO2 SLP026 T00671122 51023


Nearby Destination Airports

ICAO Airport Country GC Distance View
No destination airports within a 500 NM radius!


+ Show Timetable

Scheduled Departures from PHNL

Flight To Destination Days Dep. Time Aircraft Info
No Scheduled Departures!


Scheduled Arrivals to PHNL

Flight From Origin Days Arr. Time Aircraft Info
No Scheduled Arrivals!
+ Show Recent Flight Info

Recent Departures from PHNL

Flight To Destination Pilot Flighttime Landingrate Aircraft View
No Recent Departure PIREPS!


Recent Arrivals to PHNL

Flight From Origin Pilot Flighttime Landingrate Aircraft View
No Recent Arrival PIREPS!
+ Show Pilot Information

Pilots based at PHNL

Avatar Pilot ID Name Location Rank View Profile
No Pilots are based at this airport!


Pilots currently at PHNL

Avatar Pilot ID Name Location Rank On Location since View Profile
Currently there are no pilots at this airport!
- Hide Map